Home > Products > Valid Products > MTR

000
SAUS45 KABQ 230154
MTRCQC
METAR KCQC 230153Z AUTO 27006KT 10SM CLR 10/00 A3023 RMK AO2 SLP188
T01000000





000
SAUS45 KABQ 230154
MTRTCS
METAR KTCS 230153Z AUTO 20004KT 10SM CLR 19/09 A3013 RMK AO2 SLP149
T01890094 TSNO





000
SAUS45 KABQ 230153
MTRABQ
METAR KABQ 230152Z 17005KT 10SM FEW100 FEW200 19/04 A3016 RMK AO2
SLP157 T01890044





000
SAUS45 KABQ 230054
MTRTCS
METAR KTCS 230053Z AUTO 20004KT 10SM CLR 20/09 A3011 RMK AO2 SLP144
T02000089 TSNO





000
SAUS45 KABQ 230054
MTRTCS
METAR KTCS 230053Z AUTO 20004KT 10SM CLR 20/09 A3011 RMK AO2 SLP144
T02000089 TSNO





000
SAUS45 KABQ 230054
MTRCQC
METAR KCQC 230053Z AUTO 30010KT 10SM CLR 12/00 A3021 RMK AO2 SLP179
T01220000





000
SAUS45 KABQ 230054
MTRCQC
METAR KCQC 230053Z AUTO 30010KT 10SM CLR 12/00 A3021 RMK AO2 SLP179
T01220000





000
SAUS45 KABQ 230053
MTRABQ
METAR KABQ 230052Z 00000KT 10SM FEW100 FEW200 21/03 A3014 RMK AO2
SLP146 T02110033





000
SAUS45 KABQ 230053
MTRABQ
METAR KABQ 230052Z 00000KT 10SM FEW100 FEW200 21/03 A3014 RMK AO2
SLP146 T02110033





000
SAUS45 KABQ 222354
MTRCQC
METAR KCQC 222353Z AUTO 30012KT 10SM CLR 17/M02 A3020 RMK AO2 SLP161
T01721017 10206 20167 53002





000
SAUS45 KABQ 222354
MTRTCS
METAR KTCS 222353Z AUTO 19006KT 10SM CLR 22/07 A3011 RMK AO2 SLP138
T02220072 10233 20189 55001 TSNO





000
SAUS45 KABQ 222354
MTRCQC
METAR KCQC 222353Z AUTO 30012KT 10SM CLR 17/M02 A3020 RMK AO2 SLP161
T01721017 10206 20167 53002





000
SAUS45 KABQ 222354
MTRTCS
METAR KTCS 222353Z AUTO 19006KT 10SM CLR 22/07 A3011 RMK AO2 SLP138
T02220072 10233 20189 55001 TSNO





000
SAUS45 KABQ 222352
MTRABQ
METAR KABQ 222352Z 27003KT 10SM FEW100 SCT200 22/03 A3013 RMK AO2
SLP142 T02220028 10228 20172 56003





000
SAUS45 KABQ 222352
MTRABQ
METAR KABQ 222352Z 27003KT 10SM FEW100 SCT200 22/03 A3013 RMK AO2
SLP142 T02220028 10228 20172 56003





000
SAUS45 KABQ 222254
MTRCQC
METAR KCQC 222253Z AUTO 29010KT 10SM CLR 18/01 A3019 RMK AO2 SLP156
T01780006





000
SAUS45 KABQ 222254
MTRTCS
METAR KTCS 222253Z AUTO 19005KT 10SM CLR 23/08 A3010 RMK AO2 SLP133
T02280078 TSNO





000
SAUS45 KABQ 222254
MTRTCS
METAR KTCS 222253Z AUTO 19005KT 10SM CLR 23/08 A3010 RMK AO2 SLP133
T02280078 TSNO





000
SAUS45 KABQ 222254
MTRCQC
METAR KCQC 222253Z AUTO 29010KT 10SM CLR 18/01 A3019 RMK AO2 SLP156
T01780006





000
SAUS45 KABQ 222253
MTRABQ
METAR KABQ 222252Z 00000KT 10SM FEW070 BKN250 23/03 A3013 RMK AO2
SLP140 T02280033





000
SAUS45 KABQ 222253
MTRABQ
METAR KABQ 222252Z 00000KT 10SM FEW070 BKN250 23/03 A3013 RMK AO2
SLP140 T02280033





000
SAUS45 KABQ 222154
MTRCQC
METAR KCQC 222153Z AUTO 29014G21KT 10SM BKN070 19/02 A3019 RMK AO2
SLP150 T01940022





000
SAUS45 KABQ 222154
MTRTCS
METAR KTCS 222153Z AUTO 18006KT 10SM CLR 23/07 A3010 RMK AO2 SLP133
T02280072 TSNO





000
SAUS45 KABQ 222152
MTRABQ
METAR KABQ 222152Z VRB03KT 10SM FEW070 BKN250 22/04 A3014 RMK AO2
SLP146 T02170044





000
SAUS45 KABQ 222054
MTRTCS
METAR KTCS 222053Z AUTO 18007KT 10SM CLR 22/09 A3011 RMK AO2 SLP136
T02220089 56018 TSNO





000
SAUS45 KABQ 222054
MTRCQC
METAR KCQC 222053Z AUTO 32012G18KT 10SM SCT070 19/03 A3019 RMK AO2
SLP153 T01940028 56014





000
SAUS45 KABQ 222052
MTRABQ
METAR KABQ 222052Z 00000KT 10SM FEW070 FEW180 BKN240 22/05 A3014 RMK
AO2 SLP146 T02220050 56021





000
SAUS45 KABQ 221954
MTRCQC
METAR KCQC 221953Z AUTO 30008KT 10SM FEW047 SCT065 17/04 A3020 RMK
AO2 SLP159 T01720039





000
SAUS45 KABQ 221954
MTRTCS
METAR KTCS 221953Z AUTO 19005KT 10SM CLR 22/09 A3013 RMK AO2 SLP142
T02170089 TSNO





000
SAUS45 KABQ 221952
MTRABQ
METAR KABQ 221952Z 29004KT 10SM FEW070 BKN240 21/07 A3016 RMK AO2
SLP153 T02060067





000
SAUS45 KABQ 221854
MTRCQC
METAR KCQC 221853Z AUTO 31009KT 10SM FEW037 SCT060 17/05 A3022 RMK
AO2 SLP170 T01720050





000
SAUS45 KABQ 221854
MTRTCS
METAR KTCS 221853Z AUTO 11003KT 10SM CLR 21/11 A3016 RMK AO2 SLP153
T02060106 TSNO





000
SAUS45 KABQ 221852
MTRABQ
METAR KABQ 221852Z 00000KT 10SM FEW060 SCT240 20/08 A3019 RMK AO2
SLP163 T02000078





000
SAUS45 KABQ 221754
MTRTCS
METAR KTCS 221753Z AUTO 00000KT 10SM CLR 19/11 A3018 RMK AO2 SLP162
T01890106 10189 20100 50001 TSNO





000
SAUS45 KABQ 221754
MTRCQC
METAR KCQC 221753Z AUTO 29011G18KT 10SM CLR 17/07 A3024 RMK AO2
SLP173 T01670072 10172 20061 50001





000
SAUS45 KABQ 221754
MTRCQC
METAR KCQC 221753Z AUTO 29011G18KT 10SM CLR 17/07 A3024 RMK AO2
SLP173 T01670072 10172 20061 50001





000
SAUS45 KABQ 221754
MTRTCS
METAR KTCS 221753Z AUTO 00000KT 10SM CLR 19/11 A3018 RMK AO2 SLP162
T01890106 10189 20100 50001 TSNO





000
SAUS45 KABQ 221752
MTRABQ
METAR KABQ 221752Z 00000KT 10SM FEW050 FEW240 17/09 A3021 RMK AO2
SLP174 MTN TOPS OBSC NE T01720094 10183 20111 50000





000
SAUS45 KABQ 221752
MTRABQ
METAR KABQ 221752Z 00000KT 10SM FEW050 FEW240 17/09 A3021 RMK AO2
SLP174 MTN TOPS OBSC NE T01720094 10183 20111 50000





000
SAUS45 KABQ 221654
MTRTCS
METAR KTCS 221653Z AUTO 14005KT 10SM CLR 18/11 A3018 RMK AO2 SLP166
T01780111 TSNO





000
SAUS45 KABQ 221654
MTRTCS
METAR KTCS 221653Z AUTO 14005KT 10SM CLR 18/11 A3018 RMK AO2 SLP166
T01780111 TSNO





000
SAUS45 KABQ 221654
MTRCQC
METAR KCQC 221653Z AUTO 29014KT 10SM CLR 16/08 A3024 RMK AO2 SLP176
T01560078





000
SAUS45 KABQ 221654
MTRCQC
METAR KCQC 221653Z AUTO 29014KT 10SM CLR 16/08 A3024 RMK AO2 SLP176
T01560078





000
SAUS45 KABQ 221652
MTRABQ
METAR KABQ 221652Z 19004KT 10SM FEW035 FEW240 16/10 A3022 RMK AO2
SLP181 T01610100





000
SAUS45 KABQ 221652
MTRABQ
METAR KABQ 221652Z 19004KT 10SM FEW035 FEW240 16/10 A3022 RMK AO2
SLP181 T01610100





000
SAUS45 KABQ 221554
MTRCQC
METAR KCQC 221553Z AUTO 30018KT 10SM CLR 12/09 A3024 RMK AO2 SLP183
T01170089





000
SAUS45 KABQ 221554
MTRTCS
METAR KTCS 221553Z AUTO 25003KT 10SM CLR 17/10 A3018 RMK AO2 SLP165
T01670100 TSNO





000
SAUS45 KABQ 221554
MTRCQC
METAR KCQC 221553Z AUTO 30018KT 10SM CLR 12/09 A3024 RMK AO2 SLP183
T01170089





000
SAUS45 KABQ 221554
MTRTCS
METAR KTCS 221553Z AUTO 25003KT 10SM CLR 17/10 A3018 RMK AO2 SLP165
T01670100 TSNO





000
SAUS45 KABQ 221552
MTRABQ
METAR KABQ 221552Z 16004KT 10SM FEW030 FEW250 14/10 A3022 RMK AO2
SLP183 T01440100





000
SAUS45 KABQ 221528
MTRCQC
SPECI KCQC 221527Z AUTO 30010KT 10SM SCT004 10/08 A3024 RMK AO2
T01000083





000
SAUS45 KABQ 221504
MTRCQC
SPECI KCQC 221502Z AUTO 28003KT 3SM BR BKN002 09/08 A3024 RMK AO2
T00890083





000
SAUS45 KABQ 221503
MTRTCS
SPECI KTCS 221502Z AUTO 29006KT 10SM FEW002 14/09 A3018 RMK AO2
T01440094 TSNO





000
SAUS45 KABQ 221454
MTRTCS
METAR KTCS 221453Z AUTO 30005KT 10SM CLR 14/09 A3017 RMK AO2 SLP162
T01390094 53017 TSNO





000
SAUS45 KABQ 221454
MTRCQC
METAR KCQC 221453Z AUTO 27004KT 1 1/4SM BR OVC001 09/08 A3023 RMK
AO2 SLP188 T00890078 51013





000
SAUS45 KABQ 221452
MTRCQC
SPECI KCQC 221451Z AUTO 28004KT 1 1/2SM BR OVC001 09/08 A3023 RMK
AO2





000
SAUS45 KABQ 221452
MTRABQ
METAR KABQ 221452Z 11003KT 10SM FEW020 FEW250 14/09 A3021 RMK AO2
SLP183 T01390094 53020





000
SAUS45 KABQ 221442
MTRCQC
SPECI KCQC 221440Z AUTO 28005KT 3/4SM BR VV001 09/08 A3023 RMK AO2
T00890083





000
SAUS45 KABQ 221410
MTRCQC
SPECI KCQC 221409Z AUTO 33004KT 1/4SM FG VV001 07/06 A3021 RMK AO2
T00720061





000
SAUS45 KABQ 221405
MTRCQC
SPECI KCQC 221404Z AUTO 31005KT 1SM BR VV002 08/07 A3021 RMK AO2
T00780072





000
SAUS45 KABQ 221404
MTRCQC
SPECI KCQC 221402Z AUTO 29005KT 1 3/4SM BR CLR 08/07 A3021 RMK AO2
T00780072





000
SAUS45 KABQ 221354
MTRTCS
METAR KTCS 221353Z AUTO 29005KT 10SM CLR 11/09 A3014 RMK AO2 SLP156
T01060089 TSNO





000
SAUS45 KABQ 221354
MTRCQC
METAR KCQC 221353Z AUTO 27006KT 7SM CLR 08/07 A3020 RMK AO2 SLP175
T00780067





000
SAUS45 KABQ 221352
MTRABQ
METAR KABQ 221352Z VRB03KT 10SM FEW040 FEW100 12/08 A3018 RMK AO2
SLP170 ACSL SE MTN TOPS OBSC E-SE T01170083





000
SAUS45 KABQ 221254
MTRCQC
METAR KCQC 221253Z AUTO 32004KT 6SM BR CLR 07/06 A3019 RMK AO2
SLP174 T00670056





000
SAUS45 KABQ 221254
MTRTCS
METAR KTCS 221253Z AUTO 29004KT 10SM CLR 10/09 A3013 RMK AO2 SLP150
T01000089 TSNO





000
SAUS45 KABQ 221252
MTRABQ
METAR KABQ 221252Z 11003KT 10SM FEW040 SCT100 12/08 A3016 RMK AO2
SLP160 MTN TOPS OBSC NE-SE T01170083





000
SAUS45 KABQ 221205
MTRCQC
SPECI KCQC 221203Z AUTO 29005KT 9SM SCT001 07/06 A3018 RMK AO2
T00670061





000
SAUS45 KABQ 221158
MTRCQC
SPECI KCQC 221157Z AUTO 26007KT 2 1/2SM BR BKN001 07/06 A3018 RMK
AO2 T00670061





000
SAUS45 KABQ 221156 COR
MTRCQC
METAR KCQC 221153Z AUTO 26008KT 1SM BR VV001 07/07 A3018 RMK AO2
SLP169 70001 T00720067 10089 20072 53002





000
SAUS45 KABQ 221155 COR
MTRCQC
METAR KCQC 221153Z AUTO 26008KT 1SM BR VV001 07/07 A3018 RMK AO2
SLP169 70001 T00720067 10089 20072 53002





000
SAUS45 KABQ 221154
MTRCQC
METAR KCQC 221153Z AUTO 26008KT 1SM BR VV001 07/07 A3018 RMK AO2
SLP169 70001 T00720067 10089 20072 53002





000
SAUS45 KABQ 221154
MTRTCS
METAR KTCS 221153Z AUTO 30006KT 10SM CLR 11/09 A3012 RMK AO2 SLP144
T01060089 10133 20106 53004 TSNO





000
SAUS45 KABQ 221152
MTRABQ
METAR KABQ 221152Z 14005KT 10SM SCT095 12/08 A3014 RMK AO2 SLP150
T01220083 10144 20117 53005





000
SAUS45 KABQ 221138
MTRCQC
SPECI KCQC 221137Z AUTO 25009KT 1/2SM FG VV001 07/07 A3018 RMK AO2
T00720067





000
SAUS45 KABQ 221130
MTRCQC
SPECI KCQC 221129Z AUTO 25009KT 1 3/4SM BR SCT001 07/07 A3018 RMK
AO2 T00720067





000
SAUS45 KABQ 221117
MTRCQC
SPECI KCQC 221115Z AUTO 25010KT 9SM SCT001 07/07 A3017 RMK AO2
T00720067





000
SAUS45 KABQ 221111
MTRCQC
SPECI KCQC 221109Z AUTO 25010KT 2SM BR BKN001 07/07 A3017 RMK AO2
T00720067





000
SAUS45 KABQ 221054
MTRTCS
METAR KTCS 221053Z AUTO 29006KT 10SM CLR 12/09 A3010 RMK AO2 SLP136
T01170094 TSNO





000
SAUS45 KABQ 221054
MTRCQC
METAR KCQC 221053Z AUTO 25010KT 3/4SM BR VV001 08/07 A3017 RMK AO2
SLP161 T00780067





000
SAUS45 KABQ 221052
MTRABQ
METAR KABQ 221052Z 18003KT 10SM SCT080 13/08 A3013 RMK AO2 SLP147
T01280083





000
SAUS45 KABQ 221050
MTRCQC
SPECI KCQC 221049Z AUTO 25009KT 1SM BR VV002 08/07 A3017 RMK AO2





000
SAUS45 KABQ 221048
MTRCQC
SPECI KCQC 221047Z AUTO 25009KT 1 1/2SM BR SCT001 08/07 A3017 RMK
AO2





000
SAUS45 KABQ 221046
MTRCQC
SPECI KCQC 221045Z AUTO 25009KT 3SM BR SCT001 08/07 A3017 RMK AO2
T00780067





000
SAUS45 KABQ 220955
MTRCQC
METAR KCQC 220953Z AUTO 23010KT 10SM BKN080 08/07 A3016 RMK AO2
SLP149 T00830072





000
SAUS45 KABQ 220955
MTRCQC
METAR KCQC 220953Z AUTO 23010KT 10SM BKN080 08/07 A3016 RMK AO2
SLP149 T00830072





000
SAUS45 KABQ 220954
MTRTCS
METAR KTCS 220953Z AUTO 28003KT 10SM OVC100 12/10 A3010 RMK AO2
SLP137 T01170100 TSNO





000
SAUS45 KABQ 220954
MTRTCS
METAR KTCS 220953Z AUTO 28003KT 10SM OVC100 12/10 A3010 RMK AO2
SLP137 T01170100 TSNO





000
SAUS45 KABQ 220952
MTRABQ
METAR KABQ 220952Z 12007KT 10SM SCT075 SCT110 12/08 A3012 RMK AO2
SLP141 T01170083





000
SAUS45 KABQ 220952
MTRABQ
METAR KABQ 220952Z 12007KT 10SM SCT075 SCT110 12/08 A3012 RMK AO2
SLP141 T01170083





000
SAUS45 KABQ 220908
MTRCQC
SPECI KCQC 220906Z AUTO 22009KT 7SM SCT001 07/07 A3017 RMK AO2
T00720067





000
SAUS45 KABQ 220854
MTRCQC
METAR KCQC 220853Z AUTO 22008KT 1SM BR VV001 07/07 A3017 RMK AO2
SLP158 T00720067 53001





000
SAUS45 KABQ 220854
MTRTCS
METAR KTCS 220853Z AUTO 29005KT 10SM CLR 12/10 A3010 RMK AO2 SLP138
T01220100 51003 TSNO





000
SAUS45 KABQ 220852
MTRCQC
SPECI KCQC 220850Z AUTO 22008KT 1SM BR VV001 07/07 A3017 RMK AO2





000
SAUS45 KABQ 220852
MTRABQ
METAR KABQ 220852Z 10005KT 10SM FEW070 BKN085 BKN110 12/08 A3012 RMK
AO2 SLP148 T01170083 52003





000
SAUS45 KABQ 220827
MTRCQC
SPECI KCQC 220826Z AUTO 22008KT 1 1/4SM BR BKN001 08/07 A3017 RMK
AO2 T00780072





000
SAUS45 KABQ 220823
MTRCQC
SPECI KCQC 220822Z AUTO 22008KT 2 1/2SM BR SCT001 08/07 A3017 RMK
AO2 T00780072





000
SAUS45 KABQ 220755
MTRTCS
METAR KTCS 220753Z AUTO 28005KT 10SM CLR 12/11 A3010 RMK AO2 SLP137
T01220106 TSNO





000
SAUS45 KABQ 220754
MTRCQC
METAR KCQC 220753Z AUTO 22009KT 10SM CLR 08/07 A3017 RMK AO2 SLP153
T00780067





000
SAUS45 KABQ 220752
MTRABQ
METAR KABQ 220752Z 20004KT 10SM OVC090 14/08 A3012 RMK AO2 SLP143
T01390078





000
SAUS45 KABQ 220716
MTRCQC
SPECI KCQC 220714Z AUTO 20007KT 10SM FEW001 07/07 A3017 RMK AO2
T00720067





000
SAUS45 KABQ 220708
MTRCQC
SPECI KCQC 220707Z AUTO 21007KT 2SM BR FEW001 07/07 A3017 RMK AO2
T00720067





000
SAUS45 KABQ 220654
MTRCQC
METAR KCQC 220653Z AUTO 20007KT 1 1/4SM BR FEW001 07/07 A3017 RMK
AO2 SLP154 T00720067 401610067





000
SAUS45 KABQ 220654
MTRTCS
METAR KTCS 220653Z AUTO 27005KT 10SM CLR 13/11 A3010 RMK AO2 SLP136
T01280106 402060111 TSNO





000
SAUS45 KABQ 220653
MTRABQ
METAR KABQ 220652Z 00000KT 10SM SCT095 OVC120 14/08 A3011 RMK AO2
SLP140 T01390078 402060111





000
SAUS45 KABQ 220652
MTRCQC
SPECI KCQC 220651Z AUTO 20007KT 2 1/2SM BR FEW001 07/07 A3017 RMK
AO2





000
SAUS45 KABQ 220634
MTRCQC
SPECI KCQC 220633Z AUTO 21008KT 9SM CLR 08/07 A3017 RMK AO2
T00780072





000
SAUS45 KABQ 220621
MTRCQC
SPECI KCQC 220620Z AUTO 19008KT 2 1/2SM BR SCT002 08/07 A3017 RMK
AO2 T00780072





000
SAUS45 KABQ 220613
MTRCQC
SPECI KCQC 220611Z AUTO 19006KT 8SM BKN002 08/08 A3017 RMK AO2
T00830078





000
SAUS45 KABQ 220605
MTRCQC
SPECI KCQC 220604Z AUTO 19006KT 2 1/2SM BR BKN002 08/08 A3017 RMK
AO2 T00830078





000
SAUS45 KABQ 220559 COR
MTRCQC
METAR KCQC 220553Z AUTO 20006KT 1/2SM FG VV002 09/08 A3017 RMK AO2
SLP155 60000 T00890083 10111 20089 58001





000
SAUS45 KABQ 220559 COR
MTRCQC
METAR KCQC 220553Z AUTO 20006KT 1/2SM FG VV002 09/08 A3017 RMK AO2
SLP155 60000 T00890083 10111 20089 58001





000
SAUS45 KABQ 220558 COR
MTRCQC
METAR KCQC 220553Z AUTO 20006KT 1/2SM FG VV002 09/08 A3017 RMK AO2
SLP155 60000 T00890083 10111 20089 58001





000
SAUS45 KABQ 220558 COR
MTRCQC
METAR KCQC 220553Z AUTO 20006KT 1/2SM FG VV002 09/08 A3017 RMK AO2
SLP155 60000 T00890083 10111 20089 58001





000
SAUS45 KABQ 220556 COR
MTRCQC
METAR KCQC 220553Z AUTO 20006KT 1/2SM FG VV002 09/08 A3017 RMK AO2
SLP155 60000 T00890083 10111 20089 58001





000
SAUS45 KABQ 220556 COR
MTRCQC
METAR KCQC 220553Z AUTO 20006KT 1/2SM FG VV002 09/08 A3017 RMK AO2
SLP155 60000 T00890083 10111 20089 58001





000
SAUS45 KABQ 220555 COR
MTRCQC
METAR KCQC 220553Z AUTO 20006KT 1/2SM FG VV002 09/08 A3017 RMK AO2
SLP155 60000 T00890083 10111 20089 58001





000
SAUS45 KABQ 220555 COR
MTRCQC
METAR KCQC 220553Z AUTO 20006KT 1/2SM FG VV002 09/08 A3017 RMK AO2
SLP155 60000 T00890083 10111 20089 58001





000
SAUS45 KABQ 220554
MTRTCS
METAR KTCS 220553Z AUTO 29004KT 10SM CLR 13/11 A3009 RMK AO2 SLP136
T01280106 10194 20128 51009 TSNO





000
SAUS45 KABQ 220554
MTRCQC
METAR KCQC 220553Z AUTO 20006KT 1/2SM FG VV002 09/08 A3017 RMK AO2
SLP155 60000 T00890083 10111 20089 58001





000
SAUS45 KABQ 220554
MTRTCS
METAR KTCS 220553Z AUTO 29004KT 10SM CLR 13/11 A3009 RMK AO2 SLP136
T01280106 10194 20128 51009 TSNO





000
SAUS45 KABQ 220554
MTRCQC
METAR KCQC 220553Z AUTO 20006KT 1/2SM FG VV002 09/08 A3017 RMK AO2
SLP155 60000 T00890083 10111 20089 58001





000
SAUS45 KABQ 220553
MTRABQ
METAR KABQ 220552Z 00000KT 10SM SCT120 BKN200 14/08 A3011 RMK AO2
SLP142 T01440083 10194 20133 50004





000
SAUS45 KABQ 220553
MTRABQ
METAR KABQ 220552Z 00000KT 10SM SCT120 BKN200 14/08 A3011 RMK AO2
SLP142 T01440083 10194 20133 50004





000
SAUS45 KABQ 220550
MTRCQC
SPECI KCQC 220549Z AUTO 20008KT 1/2SM FG VV002 09/08 A3017 RMK AO2





000
SAUS45 KABQ 220550
MTRCQC
SPECI KCQC 220549Z AUTO 20008KT 1/2SM FG VV002 09/08 A3017 RMK AO2





000
SAUS45 KABQ 220543
MTRCQC
SPECI KCQC 220541Z AUTO 21008KT 1/4SM FG VV002 09/08 A3017 RMK AO2
T00890083





000
SAUS45 KABQ 220543
MTRCQC
SPECI KCQC 220541Z AUTO 21008KT 1/4SM FG VV002 09/08 A3017 RMK AO2
T00890083





000
SAUS45 KABQ 220535
MTRCQC
SPECI KCQC 220534Z AUTO 20009KT 1/2SM FG VV002 09/08 A3016 RMK AO2
T00890083





000
SAUS45 KABQ 220535
MTRCQC
SPECI KCQC 220534Z AUTO 20009KT 1/2SM FG VV002 09/08 A3016 RMK AO2
T00890083





000
SAUS45 KABQ 220525
MTRCQC
SPECI KCQC 220523Z AUTO 19008KT 1/4SM FG VV002 09/08 A3017 RMK AO2
T00890083





000
SAUS45 KABQ 220525
MTRCQC
SPECI KCQC 220523Z AUTO 19008KT 1/4SM FG VV002 09/08 A3017 RMK AO2
T00890083





000
SAUS45 KABQ 220517
MTRCQC
SPECI KCQC 220516Z AUTO 19008KT 1/2SM FG VV002 09/08 A3017 RMK AO2
T00890083





000
SAUS45 KABQ 220517
MTRCQC
SPECI KCQC 220516Z AUTO 19008KT 1/2SM FG VV002 09/08 A3017 RMK AO2
T00890083





000
SAUS45 KABQ 220509
MTRCQC
SPECI KCQC 220508Z AUTO 19007KT 1 1/2SM BR BKN002 09/08 A3017 RMK
AO2 T00890083





000
SAUS45 KABQ 220509
MTRCQC
SPECI KCQC 220508Z AUTO 19007KT 1 1/2SM BR BKN002 09/08 A3017 RMK
AO2 T00890083





000
SAUS45 KABQ 220505
MTRCQC
SPECI KCQC 220504Z AUTO 19008KT 7SM SCT002 09/08 A3017 RMK AO2
T00890078





000
SAUS45 KABQ 220505
MTRCQC
SPECI KCQC 220504Z AUTO 19008KT 7SM SCT002 09/08 A3017 RMK AO2
T00890078





000
SAUS45 KABQ 220456
MTRCQC
METAR KCQC 220453Z AUTO 20009KT 10SM CLR 09/08 A3017 RMK AO2 SLP155
T00890078





000
SAUS45 KABQ 220456
MTRCQC
METAR KCQC 220453Z AUTO 20009KT 10SM CLR 09/08 A3017 RMK AO2 SLP155
T00890078





000
SAUS45 KABQ 220454
MTRTCS
METAR KTCS 220453Z AUTO 30006KT 10SM CLR 13/11 A3008 RMK AO2 SLP137
T01330111 TSNO





000
SAUS45 KABQ 220454
MTRTCS
METAR KTCS 220453Z AUTO 30006KT 10SM CLR 13/11 A3008 RMK AO2 SLP137
T01330111 TSNO





000
SAUS45 KABQ 220453
MTRABQ
METAR KABQ 220452Z 28003KT 10SM SCT100 SCT200 14/08 A3012 RMK AO2
SLP145 T01390083





000
SAUS45 KABQ 220453
MTRABQ
METAR KABQ 220452Z 28003KT 10SM SCT100 SCT200 14/08 A3012 RMK AO2
SLP145 T01390083





000
SAUS45 KABQ 220354
MTRCQC
METAR KCQC 220353Z AUTO 18005KT 10SM SCT080 09/08 A3017 RMK AO2
SLP156 T00940083





000
SAUS45 KABQ 220354
MTRTCS
METAR KTCS 220353Z AUTO 00000KT 10SM CLR 16/11 A3008 RMK AO2 SLP132
T01560111 TSNO





000
SAUS45 KABQ 220354
MTRTCS
METAR KTCS 220353Z AUTO 00000KT 10SM CLR 16/11 A3008 RMK AO2 SLP132
T01560111 TSNO





000
SAUS45 KABQ 220353
MTRABQ
METAR KABQ 220352Z 13005KT 10SM FEW070 SCT110 SCT200 14/08 A3011 RMK
AO2 SLP146 T01390083





000
SAUS45 KABQ 220310
MTRCQC
SPECI KCQC 220309Z AUTO 17011KT 10SM FEW003 OVC080 10/09 A3016 RMK
AO2 T01000089





000
SAUS45 KABQ 220258 COR
MTRCQC
METAR KCQC 220253Z AUTO 17009KT 10SM BKN003 OVC080 10/09 A3016 RMK
AO2 RAE03 SLP157 P0000 60000 T01000094 51006





000
SAUS45 KABQ 220256 COR
MTRCQC
METAR KCQC 220253Z AUTO 17009KT 10SM BKN003 OVC080 10/09 A3016 RMK
AO2 RAE03 SLP157 P0000 60000 T01000094 51006





000
SAUS45 KABQ 220256 COR
MTRCQC
METAR KCQC 220253Z AUTO 17009KT 10SM BKN003 OVC080 10/09 A3016 RMK
AO2 RAE03 SLP157 P0000 60000 T01000094 51006





000
SAUS45 KABQ 220255 COR
MTRCQC
METAR KCQC 220253Z AUTO 17009KT 10SM BKN003 OVC080 10/09 A3016 RMK
AO2 RAE03 SLP157 P0000 60000 T01000094 51006





000
SAUS45 KABQ 220255 COR
MTRCQC
METAR KCQC 220253Z AUTO 17009KT 10SM BKN003 OVC080 10/09 A3016 RMK
AO2 RAE03 SLP157 P0000 60000 T01000094 51006





000
SAUS45 KABQ 220254
MTRCQC
METAR KCQC 220253Z AUTO 17009KT 10SM BKN003 OVC080 10/09 A3016 RMK
AO2 RAE03 SLP157 P0000 60000 T01000094 51006





000
SAUS45 KABQ 220254
MTRTCS
METAR KTCS 220253Z AUTO 32003KT 10SM CLR 17/11 A3006 RMK AO2 SLP125
T01670106 53009 TSNO





000
SAUS45 KABQ 220254
MTRTCS
METAR KTCS 220253Z AUTO 32003KT 10SM CLR 17/11 A3006 RMK AO2 SLP125
T01670106 53009 TSNO





000
SAUS45 KABQ 220254
MTRCQC
METAR KCQC 220253Z AUTO 17009KT 10SM BKN003 OVC080 10/09 A3016 RMK
AO2 RAE03 SLP157 P0000 60000 T01000094 51006





000
SAUS45 KABQ 220253
MTRABQ
METAR KABQ 220252Z 13006KT 10SM FEW050 FEW100 SCT200 14/08 A3010 RMK
AO2 SLP148 T01390083 52014





000
SAUS45 KABQ 220253
MTRABQ
METAR KABQ 220252Z 13006KT 10SM FEW050 FEW100 SCT200 14/08 A3010 RMK
AO2 SLP148 T01390083 52014





000
SAUS45 KABQ 220157 COR
MTRCQC
METAR KCQC 220153Z AUTO 16008KT 10SM -RA BKN003 OVC080 11/09 A3015
RMK AO2 RAB53 SLP157 P0000 T01060094





000
SAUS45 KABQ 220157 COR
MTRCQC
METAR KCQC 220153Z AUTO 16008KT 10SM -RA BKN003 OVC080 11/09 A3015
RMK AO2 RAB53 SLP157 P0000 T01060094





000
SAUS45 KABQ 220156 COR
MTRCQC
METAR KCQC 220153Z AUTO 16008KT 10SM -RA BKN003 OVC080 11/09 A3015
RMK AO2 RAB53 SLP157 P0000 T01060094





000
SAUS45 KABQ 220156 COR
MTRCQC
METAR KCQC 220153Z AUTO 16008KT 10SM -RA BKN003 OVC080 11/09 A3015
RMK AO2 RAB53 SLP157 P0000 T01060094





000
SAUS45 KABQ 220155 COR
MTRCQC
METAR KCQC 220153Z AUTO 16008KT 10SM -RA BKN003 OVC080 11/09 A3015
RMK AO2 RAB53 SLP157 P0000 T01060094





000
SAUS45 KABQ 220155 COR
MTRCQC
METAR KCQC 220153Z AUTO 16008KT 10SM -RA BKN003 OVC080 11/09 A3015
RMK AO2 RAB53 SLP157 P0000 T01060094





000
SAUS45 KABQ 220154
MTRCQC
METAR KCQC 220153Z AUTO 16008KT 10SM -RA BKN003 OVC080 11/09 A3015
RMK AO2 RAB53 SLP157 P0000 T01060094





000
SAUS45 KABQ 220154
MTRCQC
METAR KCQC 220153Z AUTO 16008KT 10SM -RA BKN003 OVC080 11/09 A3015
RMK AO2 RAB53 SLP157 P0000 T01060094





000
SAUS45 KABQ 220154
MTRTCS
METAR KTCS 220153Z AUTO 33005KT 10SM BKN100 18/11 A3005 RMK AO2
SLP120 T01780111 TSNO





000
SAUS45 KABQ 220154
MTRTCS
METAR KTCS 220153Z AUTO 33005KT 10SM BKN100 18/11 A3005 RMK AO2
SLP120 T01780111 TSNO





000
SAUS45 KABQ 220153
MTRABQ
METAR KABQ 220152Z 20005KT 10SM FEW100 SCT250 16/08 A3008 RMK AO2
SLP137 T01610083





000
SAUS45 KABQ 220153
MTRABQ
METAR KABQ 220152Z 20005KT 10SM FEW100 SCT250 16/08 A3008 RMK AO2
SLP137 T01610083





000
SAUS45 KABQ 220151
MTRCQC
SPECI KCQC 220149Z AUTO 16009KT 10SM BKN003 OVC075 11/09 A3015 RMK
AO2





000
SAUS45 KABQ 220133
MTRCQC
SPECI KCQC 220132Z AUTO 16008KT 10SM FEW004 SCT055 OVC075 11/09
A3015 RMK AO2 T01060094





000
SAUS45 KABQ 220054
MTRTCS
METAR KTCS 220053Z AUTO 00000KT 10SM OVC100 18/11 A3003 RMK AO2
SLP114 T01830106 TSNO





000
SAUS45 KABQ 220054
MTRCQC
METAR KCQC 220053Z AUTO 16008KT 10SM OVC060 11/09 A3014 RMK AO2
SLP151 T01110089





000
SAUS45 KABQ 220053
MTRABQ
METAR KABQ 220052Z 19009KT 10SM FEW060 SCT100 SCT270 18/07 A3006 RMK
AO2 SLP127 T01780072





000
SAUS45 KABQ 220001 COR
MTRCQC
METAR KCQC 212353Z AUTO 17004KT 10SM FEW065 11/08 A3013 RMK AO2
RAE2257 SLP149 P0000 60001 T01110083 10161 20111 56005





000
SAUS45 KABQ 212359 COR
MTRCQC
METAR KCQC 212353Z AUTO 17004KT 10SM FEW065 11/08 A3013 RMK AO2
RAE2257 SLP149 P0000 60001 T01110083 10161 20111 56005





000
SAUS45 KABQ 212358 COR
MTRCQC
METAR KCQC 212353Z AUTO 17004KT 10SM FEW065 11/08 A3013 RMK AO2
RAE2257 SLP149 P0000 60001 T01110083 10161 20111 56005





000
SAUS45 KABQ 212356 COR
MTRCQC
METAR KCQC 212353Z AUTO 17004KT 10SM FEW065 11/08 A3013 RMK AO2
RAE2257 SLP149 P0000 60001 T01110083 10161 20111 56005





000
SAUS45 KABQ 212355 COR
MTRCQC
METAR KCQC 212353Z AUTO 17004KT 10SM FEW065 11/08 A3013 RMK AO2
RAE2257 SLP149 P0000 60001 T01110083 10161 20111 56005





000
SAUS45 KABQ 212355
MTRTCS
METAR KTCS 212353Z AUTO 00000KT 10SM CLR 19/09 A3003 RMK AO2 SLP112
T01890094 10206 20167 56009 TSNO





000
SAUS45 KABQ 212354
MTRCQC
METAR KCQC 212353Z AUTO 17004KT 10SM FEW065 11/08 A3013 RMK AO2
RAE2257 SLP149 P0000 60001 T01110083 10161 20111 56005





000
SAUS45 KABQ 212352
MTRABQ
METAR KABQ 212352Z 15011KT 10SM FEW060 SCT100 SCT270 19/07 A3005 RMK
AO2 SLP121 T01940067 10206 20167 58004





000
SAUS45 KABQ 212258 COR
MTRCQC
METAR KCQC 212253Z AUTO 16011KT 10SM -RA SCT050 BKN065 OVC085 12/09
A3014 RMK AO2 RAB37 SLP148 P0001 T01220094





000
SAUS45 KABQ 212258 COR
MTRCQC
METAR KCQC 212253Z AUTO 16011KT 10SM -RA SCT050 BKN065 OVC085 12/09
A3014 RMK AO2 RAB37 SLP148 P0001 T01220094





000
SAUS45 KABQ 212256 COR
MTRCQC
METAR KCQC 212253Z AUTO 16011KT 10SM -RA SCT050 BKN065 OVC085 12/09
A3014 RMK AO2 RAB37 SLP148 P0001 T01220094





000
SAUS45 KABQ 212256 COR
MTRCQC
METAR KCQC 212253Z AUTO 16011KT 10SM -RA SCT050 BKN065 OVC085 12/09
A3014 RMK AO2 RAB37 SLP148 P0001 T01220094





000
SAUS45 KABQ 212255 COR
MTRCQC
METAR KCQC 212253Z AUTO 16011KT 10SM -RA SCT050 BKN065 OVC085 12/09
A3014 RMK AO2 RAB37 SLP148 P0001 T01220094





000
SAUS45 KABQ 212255 COR
MTRCQC
METAR KCQC 212253Z AUTO 16011KT 10SM -RA SCT050 BKN065 OVC085 12/09
A3014 RMK AO2 RAB37 SLP148 P0001 T01220094





000
SAUS45 KABQ 212254
MTRCQC
METAR KCQC 212253Z AUTO 16011KT 10SM -RA SCT050 BKN065 OVC085 12/09
A3014 RMK AO2 RAB37 SLP148 P0001 T01220094





000
SAUS45 KABQ 212254
MTRTCS
METAR KTCS 212253Z AUTO 00000KT 10SM CLR 20/09 A3004 RMK AO2 SLP113
T02000094 TSNO





000
SAUS45 KABQ 212254
MTRCQC
METAR KCQC 212253Z AUTO 16011KT 10SM -RA SCT050 BKN065 OVC085 12/09
A3014 RMK AO2 RAB37 SLP148 P0001 T01220094





000
SAUS45 KABQ 212254
MTRTCS
METAR KTCS 212253Z AUTO 00000KT 10SM CLR 20/09 A3004 RMK AO2 SLP113
T02000094 TSNO





000
SAUS45 KABQ 212252
MTRABQ
METAR KABQ 212252Z 17012KT 10SM SCT050 SCT090 BKN270 19/07 A3006 RMK
AO2 WSHFT 2227 SLP124 T01940072





000
SAUS45 KABQ 212252
MTRABQ
METAR KABQ 212252Z 17012KT 10SM SCT050 SCT090 BKN270 19/07 A3006 RMK
AO2 WSHFT 2227 SLP124 T01940072





000
SAUS45 KABQ 212247
MTRABQ
SPECI KABQ 212247Z 17011KT 10SM SCT050 SCT090 BKN270 19/07 A3006 RMK
AO2 WSHFT 2227





000
SAUS45 KABQ 212247
MTRABQ
SPECI KABQ 212247Z 17011KT 10SM SCT050 SCT090 BKN270 19/07 A3006 RMK
AO2 WSHFT 2227





000
SAUS45 KABQ 212154
MTRTCS
METAR KTCS 212153Z AUTO 13004KT 10SM FEW095 19/10 A3005 RMK AO2
SLP117 T01940100 TSNO





000
SAUS45 KABQ 212154
MTRCQC
METAR KCQC 212153Z AUTO 24009KT 10SM SCT037 BKN045 OVC075 16/06
A3014 RMK AO2 SLP140 T01560056





000
SAUS45 KABQ 212154
MTRCQC
METAR KCQC 212153Z AUTO 24009KT 10SM SCT037 BKN045 OVC075 16/06
A3014 RMK AO2 SLP140 T01560056





000
SAUS45 KABQ 212154
MTRTCS
METAR KTCS 212153Z AUTO 13004KT 10SM FEW095 19/10 A3005 RMK AO2
SLP117 T01940100 TSNO





000
SAUS45 KABQ 212152
MTRABQ
METAR KABQ 212152Z 21009KT 10SM SCT050 SCT090 SCT270 20/06 A3007 RMK
AO2 SLP123 T02000061





000
SAUS45 KABQ 212152
MTRABQ
METAR KABQ 212152Z 21009KT 10SM SCT050 SCT090 SCT270 20/06 A3007 RMK
AO2 SLP123 T02000061





000
SAUS45 KABQ 212054
MTRTCS
METAR KTCS 212053Z AUTO 14004KT 10SM SCT036 BKN095 18/11 A3006 RMK
AO2 SLP123 T01830106 58023 TSNO





000
SAUS45 KABQ 212054
MTRCQC
METAR KCQC 212053Z AUTO 19007KT 10SM BKN031 OVC070 15/06 A3015 RMK
AO2 SLP150 T01500061 56019





000
SAUS45 KABQ 212053
MTRABQ
METAR KABQ 212052Z 28004KT 10SM FEW050 SCT085 18/07 A3008 RMK AO2
SLP132 T01830067 58026





000
SAUS45 KABQ 211954
MTRTCS
METAR KTCS 211953Z AUTO 00000KT 10SM FEW035 18/11 A3008 RMK AO2
SLP132 T01830106 TSNO





000
SAUS45 KABQ 211954
MTRCQC
METAR KCQC 211953Z AUTO 21008KT 10SM FEW028 OVC070 15/06 A3016 RMK
AO2 SLP155 T01500061





000
SAUS45 KABQ 211953
MTRABQ
METAR KABQ 211952Z VRB03KT 10SM FEW045 BKN095 18/07 A3011 RMK AO2
SLP143 T01780067





000
SAUS45 KABQ 211854
MTRTCS
METAR KTCS 211853Z AUTO 00000KT 10SM FEW028 19/11 A3012 RMK AO2
SLP141 T01890106 TSNO





000
SAUS45 KABQ 211854
MTRCQC
METAR KCQC 211853Z AUTO 17008G16KT 10SM SCT027 SCT035 BKN070 16/06
A3020 RMK AO2 SLP161 T01560061





000
SAUS45 KABQ 211853
MTRABQ
METAR KABQ 211852Z 00000KT 10SM SCT041 BKN075 BKN100 18/08 A3015 RMK
AO2 SLP154 MTNS OBSC NE T01830078





000
SAUS45 KABQ 211758 COR
MTRCQC
METAR KCQC 211753Z AUTO 21009KT 10SM SCT023 SCT035 OVC070 13/07
A3022 RMK AO2 SLP175 T01280067 10150 20083 58001





000
SAUS45 KABQ 211756 COR
MTRCQC
METAR KCQC 211753Z AUTO 21009KT 10SM SCT023 SCT035 OVC070 13/07
A3022 RMK AO2 SLP175 T01280067 10150 20083 58001





000
SAUS45 KABQ 211755 COR
MTRCQC
METAR KCQC 211753Z AUTO 21009KT 10SM SCT023 SCT035 OVC070 13/07
A3022 RMK AO2 SLP175 T01280067 10150 20083 58001





000
SAUS45 KABQ 211754
MTRTCS
METAR KTCS 211753Z AUTO 33003KT 10SM FEW038 SCT060 17/10 A3014 RMK
AO2 SLP151 T01670100 10167 20111 58000 TSNO





000
SAUS45 KABQ 211754
MTRCQC
METAR KCQC 211753Z AUTO 21009KT 10SM SCT023 SCT035 OVC070 13/07
A3022 RMK AO2 SLP175 T01280067 10150 20083 58001





000
SAUS45 KABQ 211753
MTRABQ
METAR KABQ 211752Z 23005KT 10SM SCT033 SCT050 BKN090 17/08 A3017 RMK
AO2 SLP163 MTNS OBSC NE-SE T01670078 10172 20117 50000





000
SAUS45 KABQ 211704
MTRCQC
SPECI KCQC 211703Z AUTO 20011KT 10SM SCT021 SCT027 14/07 A3022 RMK
AO2 T01440067





000
SAUS45 KABQ 211655
MTRCQC
METAR KCQC 211653Z AUTO 20009KT 10SM SCT021 BKN025 14/07 A3022 RMK
AO2 SLP173 T01440067





000
SAUS45 KABQ 211655
MTRCQC
METAR KCQC 211653Z AUTO 20009KT 10SM SCT021 BKN025 14/07 A3022 RMK
AO2 SLP173 T01440067





000
SAUS45 KABQ 211654
MTRTCS
METAR KTCS 211653Z AUTO 36006KT 10SM SCT044 BKN060 OVC085 14/11
A3015 RMK AO2 SLP157 T01440106 TSNO





000
SAUS45 KABQ 211654
MTRTCS
METAR KTCS 211653Z AUTO 36006KT 10SM SCT044 BKN060 OVC085 14/11
A3015 RMK AO2 SLP157 T01440106 TSNO





000
SAUS45 KABQ 211652
MTRABQ
METAR KABQ 211652Z 21005KT 10SM FEW031 FEW070 FEW120 16/09 A3018 RMK
AO2 SLP164 MTNS OBSC NE T01560089





000
SAUS45 KABQ 211652
MTRABQ
METAR KABQ 211652Z 21005KT 10SM FEW031 FEW070 FEW120 16/09 A3018 RMK
AO2 SLP164 MTNS OBSC NE T01560089





000
SAUS45 KABQ 211611
MTRCQC
SPECI KCQC 211609Z AUTO 16006KT 10SM SCT017 BKN022 13/08 A3023 RMK
AO2 T01280078





000
SAUS45 KABQ 211611
MTRCQC
SPECI KCQC 211609Z AUTO 16006KT 10SM SCT017 BKN022 13/08 A3023 RMK
AO2 T01280078





000
SAUS45 KABQ 211555
MTRTCS
METAR KTCS 211553Z AUTO 02004KT 10SM BKN034 OVC043 13/11 A3015 RMK
AO2 SLP161 T01330106 TSNO





000
SAUS45 KABQ 211555
MTRTCS
METAR KTCS 211553Z AUTO 02004KT 10SM BKN034 OVC043 13/11 A3015 RMK
AO2 SLP161 T01330106 TSNO





000
SAUS45 KABQ 211554
MTRCQC
METAR KCQC 211553Z AUTO 19005KT 10SM FEW011 12/07 A3023 RMK AO2
SLP177 T01220072





000
SAUS45 KABQ 211554
MTRCQC
METAR KCQC 211553Z AUTO 19005KT 10SM FEW011 12/07 A3023 RMK AO2
SLP177 T01220072





000
SAUS45 KABQ 211553
MTRABQ
METAR KABQ 211552Z 22006KT 10SM FEW040 FEW070 13/09 A3017 RMK AO2
SLP169 MTNS OBSC NE T01330089





000
SAUS45 KABQ 211553
MTRABQ
METAR KABQ 211552Z 22006KT 10SM FEW040 FEW070 13/09 A3017 RMK AO2
SLP169 MTNS OBSC NE T01330089





000
SAUS45 KABQ 211548
MTRCQC
SPECI KCQC 211546Z AUTO 17006KT 10SM FEW009 12/07 A3023 RMK AO2
T01170072





000
SAUS45 KABQ 211548
MTRCQC
SPECI KCQC 211546Z AUTO 17006KT 10SM FEW009 12/07 A3023 RMK AO2
T01170072





000
SAUS45 KABQ 211525
MTRCQC
SPECI KCQC 211523Z AUTO 17007KT 10SM SCT008 BKN027 11/08 A3023 RMK
AO2 T01110078





000
SAUS45 KABQ 211525
MTRCQC
SPECI KCQC 211523Z AUTO 17007KT 10SM SCT008 BKN027 11/08 A3023 RMK
AO2 T01110078





000
SAUS45 KABQ 211455
MTRTCS
METAR KTCS 211453Z AUTO 36005KT 10SM BKN055 OVC085 13/11 A3014 RMK
AO2 SLP159 T01280106 53010 TSNO





000
SAUS45 KABQ 211454
MTRCQC
METAR KCQC 211453Z AUTO 15008KT 10SM FEW006 SCT060 11/08 A3022 RMK
AO2 SLP179 T01060078 51004





000
SAUS45 KABQ 211453
MTRABQ
METAR KABQ 211452Z 18006KT 10SM FEW035 BKN065 12/08 A3017 RMK AO2
SLP174 MTNS OBSC NE-SE T01170083 53007





000
SAUS45 KABQ 211424
MTRCQC
SPECI KCQC 211423Z AUTO 13007KT 10SM BKN007 OVC060 09/07 A3022 RMK
AO2 T00940072





000
SAUS45 KABQ 211406
MTRCQC
SPECI KCQC 211405Z AUTO 12006KT 10SM FEW007 OVC060 09/07 A3021 RMK
AO2 T00890067





000
SAUS45 KABQ 211354
MTRTCS
METAR KTCS 211353Z AUTO 35004KT 10SM BKN050 OVC085 12/11 A3012 RMK
AO2 SLP153 T01170106 TSNO





000
SAUS45 KABQ 211354
MTRCQC
METAR KCQC 211353Z AUTO 12006KT 10SM FEW028 OVC060 09/07 A3021 RMK
AO2 SLP179 T00890067





000
SAUS45 KABQ 211353
MTRABQ
METAR KABQ 211352Z 01004KT 10SM FEW040 BKN065 12/08 A3016 RMK AO2
SLP166 MTNS OBSC NE-SE T01220083





000
SAUS45 KABQ 211339
MTRCQC
SPECI KCQC 211338Z AUTO 12006KT 10SM FEW009 SCT028 OVC060 09/07
A3021 RMK AO2 T00890067





000
SAUS45 KABQ 211335
MTRCQC
SPECI KCQC 211334Z AUTO 12006KT 10SM SCT011 BKN028 OVC060 09/06
A3021 RMK AO2 T00890061





000
SAUS45 KABQ 211315
MTRCQC
SPECI KCQC 211314Z AUTO 11007KT 10SM BKN011 BKN016 OVC031 09/06
A3021 RMK AO2 T00890061





000
SAUS45 KABQ 211254
MTRCQC
METAR KCQC 211253Z AUTO 12005KT 10SM SCT011 BKN018 OVC027 09/06
A3021 RMK AO2 SLP175 T00890061





000
SAUS45 KABQ 211254
MTRTCS
METAR KTCS 211253Z AUTO 01004KT 10SM SCT047 11/10 A3012 RMK AO2
SLP152 T01110100 TSNO





000
SAUS45 KABQ 211253
MTRABQ
METAR KABQ 211252Z 36006KT 10SM FEW035 BKN050 OVC075 12/08 A3015 RMK
AO2 SLP160 MTNS OBSC NE-SE T01220078





000
SAUS45 KABQ 211249
MTRCQC
SPECI KCQC 211248Z AUTO 11005KT 10SM FEW011 SCT018 OVC027 09/06
A3021 RMK AO2





000
SAUS45 KABQ 211212
MTRCQC
SPECI KCQC 211211Z AUTO 09004KT 10SM BKN011 BKN023 OVC065 09/06
A3020 RMK AO2 T00890056





000
SAUS45 KABQ 211158 COR
MTRCQC
METAR KCQC 211153Z AUTO 07004KT 10SM FEW014 OVC065 09/06 A3020 RMK
AO2 SLP165 T00890056 10094 20067 55003





000
SAUS45 KABQ 211158 COR
MTRCQC
METAR KCQC 211153Z AUTO 07004KT 10SM FEW014 OVC065 09/06 A3020 RMK
AO2 SLP165 T00890056 10094 20067 55003





000
SAUS45 KABQ 211156 COR
MTRCQC
METAR KCQC 211153Z AUTO 07004KT 10SM FEW014 OVC065 09/06 A3020 RMK
AO2 SLP165 T00890056 10094 20067 55003





000
SAUS45 KABQ 211156 COR
MTRCQC
METAR KCQC 211153Z AUTO 07004KT 10SM FEW014 OVC065 09/06 A3020 RMK
AO2 SLP165 T00890056 10094 20067 55003





000
SAUS45 KABQ 211155 COR
MTRCQC
METAR KCQC 211153Z AUTO 07004KT 10SM FEW014 OVC065 09/06 A3020 RMK
AO2 SLP165 T00890056 10094 20067 55003





000
SAUS45 KABQ 211155 COR
MTRCQC
METAR KCQC 211153Z AUTO 07004KT 10SM FEW014 OVC065 09/06 A3020 RMK
AO2 SLP165 T00890056 10094 20067 55003





000
SAUS45 KABQ 211154
MTRTCS
METAR KTCS 211153Z AUTO 35004KT 10SM SCT047 12/11 A3010 RMK AO2
SLP137 70030 T01170106 10139 20111 53000 TSNO





000
SAUS45 KABQ 211154
MTRCQC
METAR KCQC 211153Z AUTO 07004KT 10SM FEW014 OVC065 09/06 A3020 RMK
AO2 SLP165 T00890056 10094 20067 55003





000
SAUS45 KABQ 211154
MTRCQC
METAR KCQC 211153Z AUTO 07004KT 10SM FEW014 OVC065 09/06 A3020 RMK
AO2 SLP165 T00890056 10094 20067 55003





000
SAUS45 KABQ 211154
MTRTCS
METAR KTCS 211153Z AUTO 35004KT 10SM SCT047 12/11 A3010 RMK AO2
SLP137 70030 T01170106 10139 20111 53000 TSNO





000
SAUS45 KABQ 211153
MTRABQ
METAR KABQ 211152Z 02006KT 10SM OVC065 12/09 A3015 RMK AO2 SLP161
70046 T01170089 10144 20111 56002





000
SAUS45 KABQ 211153
MTRABQ
METAR KABQ 211152Z 02006KT 10SM OVC065 12/09 A3015 RMK AO2 SLP161
70046 T01170089 10144 20111 56002





000
SAUS45 KABQ 211054
MTRCQC
METAR KCQC 211053Z AUTO 10005KT 10SM FEW021 OVC060 09/06 A3020 RMK
AO2 SLP153 T00890056





000
SAUS45 KABQ 211054
MTRCQC
METAR KCQC 211053Z AUTO 10005KT 10SM FEW021 OVC060 09/06 A3020 RMK
AO2 SLP153 T00890056





000
SAUS45 KABQ 211054
MTRTCS
METAR KTCS 211053Z AUTO 29004KT 10SM SCT060 12/11 A3010 RMK AO2
SLP134 T01220111 TSNO





000
SAUS45 KABQ 211054
MTRTCS
METAR KTCS 211053Z AUTO 29004KT 10SM SCT060 12/11 A3010 RMK AO2
SLP134 T01220111 TSNO





000
SAUS45 KABQ 211053
MTRABQ
METAR KABQ 211052Z 36004KT 10SM SCT060 BKN085 11/08 A3015 RMK AO2
SLP164 T01110083





000
SAUS45 KABQ 211053
MTRABQ
METAR KABQ 211052Z 36004KT 10SM SCT060 BKN085 11/08 A3015 RMK AO2
SLP164 T01110083





000
SAUS45 KABQ 210955
MTRCQC
METAR KCQC 210953Z AUTO 12003KT 10SM OVC049 08/06 A3020 RMK AO2
SLP154 T00830056





000
SAUS45 KABQ 210955
MTRCQC
METAR KCQC 210953Z AUTO 12003KT 10SM OVC049 08/06 A3020 RMK AO2
SLP154 T00830056





000
SAUS45 KABQ 210954
MTRTCS
METAR KTCS 210953Z AUTO 00000KT 10SM SCT055 OVC075 13/12 A3011 RMK
AO2 SLP133 T01280117 TSNO





000
SAUS45 KABQ 210953
MTRABQ
METAR KABQ 210952Z 36005KT 10SM FEW060 12/08 A3015 RMK AO2 SLP155
T01170083





000
SAUS45 KABQ 210854
MTRTCS
METAR KTCS 210853Z AUTO 32005KT 10SM BKN090 13/11 A3010 RMK AO2
SLP132 T01280106 58008 TSNO





000
SAUS45 KABQ 210854
MTRCQC
METAR KCQC 210853Z AUTO 22006KT 10SM CLR 07/05 A3021 RMK AO2 SLP162
T00670050 58005





000
SAUS45 KABQ 210853
MTRABQ
METAR KABQ 210852Z 31004KT 10SM SCT070 12/08 A3016 RMK AO2 SLP153
T01220083 58008





000
SAUS45 KABQ 210755
MTRTCS
METAR KTCS 210753Z AUTO 32004KT 10SM CLR 13/12 A3012 RMK AO2 SLP141
T01280117 TSNO





000
SAUS45 KABQ 210754
MTRCQC
METAR KCQC 210753Z AUTO 21007KT 10SM SCT090 07/06 A3022 RMK AO2
SLP171 T00720061





000
SAUS45 KABQ 210753
MTRABQ
METAR KABQ 210752Z 11009KT 10SM FEW090 12/08 A3017 RMK AO2 SLP159
T01220083





000
SAUS45 KABQ 210717
MTRCQC
SPECI KCQC 210716Z AUTO 00000KT 10SM FEW004 SCT039 BKN100 08/07
A3023 RMK AO2 T00780067





000
SAUS45 KABQ 210658 COR
MTRCQC
METAR KCQC 210653Z AUTO 17006KT 10SM BKN004 BKN044 OVC060 08/07
A3023 RMK AO2 SLP165 T00830072 402000050





000
SAUS45 KABQ 210656 COR
MTRCQC
METAR KCQC 210653Z AUTO 17006KT 10SM BKN004 BKN044 OVC060 08/07
A3023 RMK AO2 SLP165 T00830072 402000050





000
SAUS45 KABQ 210655 COR
MTRCQC
METAR KCQC 210653Z AUTO 17006KT 10SM BKN004 BKN044 OVC060 08/07
A3023 RMK AO2 SLP165 T00830072 402000050





000
SAUS45 KABQ 210654
MTRTCS
METAR KTCS 210653Z AUTO 32006KT 10SM SCT047 13/12 A3012 RMK AO2
SLP142 T01330122 402170100 TSNO





000
SAUS45 KABQ 210654
MTRCQC
METAR KCQC 210653Z AUTO 17006KT 10SM BKN004 BKN044 OVC060 08/07
A3023 RMK AO2 SLP165 T00830072 402000050





000
SAUS45 KABQ 210653
MTRABQ
METAR KABQ 210652Z COR 12005KT 10SM FEW090 12/08 A3018 RMK AO2
SLP165 T01220083 402280083





000
SAUS45 KABQ 210652
MTRABQ
METAR KABQ 210652Z 12005KT 10SM CLR 12/08 A3018 RMK AO2 SLP165
T01220083 402280083





000
SAUS45 KABQ 210646
MTRCQC
SPECI KCQC 210645Z AUTO 18008KT 10SM BKN005 BKN060 OVC120 08/08
A3023 RMK AO2 T00830078





000
SAUS45 KABQ 210638
MTRCQC
SPECI KCQC 210637Z AUTO 18008KT 10SM SCT005 BKN060 OVC120 09/08
A3023 RMK AO2 T00890078





000
SAUS45 KABQ 210558 COR
MTRCQC
METAR KCQC 210553Z AUTO 16012KT 7SM BKN003 09/08 A3024 RMK AO2
SLP167 60000 T00940083 10144 20083 58002





000
SAUS45 KABQ 210556 COR
MTRCQC
METAR KCQC 210553Z AUTO 16012KT 7SM BKN003 09/08 A3024 RMK AO2
SLP167 60000 T00940083 10144 20083 58002





000
SAUS45 KABQ 210555
MTRCQC
METAR KCQC 210553Z AUTO 16012KT 7SM BKN003 09/08 A3024 RMK AO2
SLP167 60000 T00940083 10144 20083 58002





000
SAUS45 KABQ 210555 COR
MTRCQC
METAR KCQC 210553Z AUTO 16012KT 7SM BKN003 09/08 A3024 RMK AO2
SLP167 60000 T00940083 10144 20083 58002





000
SAUS45 KABQ 210554
MTRTCS
METAR KTCS 210553Z AUTO 31003KT 10SM OVC060 14/12 A3013 RMK AO2
SLP144 60030 T01390122 10200 20133 50001 TSNO





000
SAUS45 KABQ 210552
MTRABQ
METAR KABQ 210552Z 06009KT 10SM FEW065 SCT090 BKN140 14/08 A3018 RMK
AO2 SLP167 60002 T01440078 10161 20139 53001





000
SAUS45 KABQ 210547
MTRCQC
SPECI KCQC 210546Z AUTO 16011KT 9SM BKN003 09/08 A3024 RMK AO2
T00940083





000
SAUS45 KABQ 210504
MTRCQC
SPECI KCQC 210503Z AUTO 14009KT 10SM FEW009 09/07 A3025 RMK AO2
T00890072





000
SAUS45 KABQ 210455
MTRTCS
METAR KTCS 210453Z AUTO 00000KT 10SM BKN043 BKN050 OVC060 14/12
A3014 RMK AO2 RAB11E34 SLP148 P0008 T01440117 TSNO





000
SAUS45 KABQ 210455
MTRTCS
METAR KTCS 210453Z AUTO 00000KT 10SM BKN043 BKN050 OVC060 14/12
A3014 RMK AO2 RAB11E34 SLP148 P0008 T01440117 TSNO





000
SAUS45 KABQ 210454
MTRCQC
METAR KCQC 210453Z AUTO 14009KT 10SM SCT010 09/07 A3025 RMK AO2
SLP176 T00890072





000
SAUS45 KABQ 210454
MTRCQC
METAR KCQC 210453Z AUTO 14009KT 10SM SCT010 09/07 A3025 RMK AO2
SLP176 T00890072





000
SAUS45 KABQ 210452
MTRABQ
METAR KABQ 210452Z 03005KT 10SM FEW055 BKN080 OVC140 15/08 A3018 RMK
AO2 RAB34E51 SLP163 P0000 T01500078





000
SAUS45 KABQ 210452
MTRABQ
METAR KABQ 210452Z 03005KT 10SM FEW055 BKN080 OVC140 15/08 A3018 RMK
AO2 RAB34E51 SLP163 P0000 T01500078





000
SAUS45 KABQ 210439
MTRCQC
SPECI KCQC 210438Z AUTO 13008KT 10SM BKN010 BKN023 09/07 A3026 RMK
AO2 T00940067





000
SAUS45 KABQ 210439
MTRCQC
SPECI KCQC 210438Z AUTO 13008KT 10SM BKN010 BKN023 09/07 A3026 RMK
AO2 T00940067





000
SAUS45 KABQ 210427
MTRTCS
SPECI KTCS 210426Z AUTO 00000KT 3SM -RA BR SCT043 BKN060 OVC070
14/12 A3014 RMK AO2 RAB11 P0008 T01390122 TSNO





000
SAUS45 KABQ 210427
MTRTCS
SPECI KTCS 210426Z AUTO 00000KT 3SM -RA BR SCT043 BKN060 OVC070
14/12 A3014 RMK AO2 RAB11 P0008 T01390122 TSNO





000
SAUS45 KABQ 210418
MTRTCS
SPECI KTCS 210416Z AUTO 27003KT 1 3/4SM +RA BR FEW031 BKN060 OVC080
14/12 A3014 RMK AO2 RAB11 P0001 T01390122 TSNO





000
SAUS45 KABQ 210418
MTRTCS
SPECI KTCS 210416Z AUTO 27003KT 1 3/4SM +RA BR FEW031 BKN060 OVC080
14/12 A3014 RMK AO2 RAB11 P0001 T01390122 TSNO





000
SAUS45 KABQ 210409
MTRCQC
SPECI KCQC 210408Z AUTO 00000KT 10SM BKN022 10/06 A3026 RMK AO2
T01000061





000
SAUS45 KABQ 210354
MTRCQC
METAR KCQC 210353Z AUTO 00000KT 10SM FEW022 SCT030 BKN085 10/07
A3025 RMK AO2 SLP178 T01000067





000
SAUS45 KABQ 210354
MTRTCS
METAR KTCS 210353Z AUTO 00000KT 10SM FEW043 BKN055 OVC070 14/12
A3014 RMK AO2 SLP150 T01440122 TSNO





000
SAUS45 KABQ 210354
MTRTCS
METAR KTCS 210353Z AUTO 00000KT 10SM FEW043 BKN055 OVC070 14/12
A3014 RMK AO2 SLP150 T01440122 TSNO





000
SAUS45 KABQ 210354
MTRCQC
METAR KCQC 210353Z AUTO 00000KT 10SM FEW022 SCT030 BKN085 10/07
A3025 RMK AO2 SLP178 T01000067





000
SAUS45 KABQ 210353
MTRABQ
METAR KABQ 210352Z 11008KT 10SM FEW045 BKN075 OVC120 14/08 A3018 RMK
AO2 RAE17 SLP169 MTNS OBSC NE-SE P0000 T01440078





000
SAUS45 KABQ 210353
MTRABQ
METAR KABQ 210352Z 11008KT 10SM FEW045 BKN075 OVC120 14/08 A3018 RMK
AO2 RAE17 SLP169 MTNS OBSC NE-SE P0000 T01440078





000
SAUS45 KABQ 210254
MTRCQC
METAR KCQC 210253Z AUTO 00000KT 10SM OVC110 10/07 A3025 RMK AO2
RAE24 SLP181 P0000 60000 T01000067 51015





000
SAUS45 KABQ 210254
MTRTCS
METAR KTCS 210253Z AUTO 35005KT 10SM BKN060 BKN070 OVC095 14/12
A3013 RMK AO2 RAB04E48 SLP152 P0001 60022 T01390117 51019 TSNO





000
SAUS45 KABQ 210254
MTRTCS
METAR KTCS 210253Z AUTO 35005KT 10SM BKN060 BKN070 OVC095 14/12
A3013 RMK AO2 RAB04E48 SLP152 P0001 60022 T01390117 51019 TSNO





000
SAUS45 KABQ 210254
MTRCQC
METAR KCQC 210253Z AUTO 00000KT 10SM OVC110 10/07 A3025 RMK AO2
RAE24 SLP181 P0000 60000 T01000067 51015





000
SAUS45 KABQ 210253
MTRABQ
METAR KABQ 210252Z 09012KT 7SM -RA FEW045 BKN075 OVC120 14/08 A3018
RMK AO2 SLP174 MTNS OBSC NE-SE P0001 60002 T01390083 53008





000
SAUS45 KABQ 210253
MTRABQ
METAR KABQ 210252Z 09012KT 7SM -RA FEW045 BKN075 OVC120 14/08 A3018
RMK AO2 SLP174 MTNS OBSC NE-SE P0001 60002 T01390083 53008





000
SAUS45 KABQ 210158 COR
MTRCQC
METAR KCQC 210153Z AUTO 20005KT 10SM -RA FEW060 BKN070 OVC095 10/06
A3024 RMK AO2 RAB47 SLP189 P0000 T01000061





000
SAUS45 KABQ 210158 COR
MTRCQC
METAR KCQC 210153Z AUTO 20005KT 10SM -RA FEW060 BKN070 OVC095 10/06
A3024 RMK AO2 RAB47 SLP189 P0000 T01000061





000
SAUS45 KABQ 210156 COR
MTRCQC
METAR KCQC 210153Z AUTO 20005KT 10SM -RA FEW060 BKN070 OVC095 10/06
A3024 RMK AO2 RAB47 SLP189 P0000 T01000061





000
SAUS45 KABQ 210156 COR
MTRCQC
METAR KCQC 210153Z AUTO 20005KT 10SM -RA FEW060 BKN070 OVC095 10/06
A3024 RMK AO2 RAB47 SLP189 P0000 T01000061





000
SAUS45 KABQ 210155 COR
MTRCQC
METAR KCQC 210153Z AUTO 20005KT 10SM -RA FEW060 BKN070 OVC095 10/06
A3024 RMK AO2 RAB47 SLP189 P0000 T01000061





000
SAUS45 KABQ 210155 COR
MTRCQC
METAR KCQC 210153Z AUTO 20005KT 10SM -RA FEW060 BKN070 OVC095 10/06
A3024 RMK AO2 RAB47 SLP189 P0000 T01000061





000
SAUS45 KABQ 210154
MTRTCS
METAR KTCS 210153Z AUTO 36009KT 10SM FEW065 OVC090 14/12 A3012 RMK
AO2 RAE12 SLP153 P0005 T01390122 TSNO





000
SAUS45 KABQ 210154
MTRCQC
METAR KCQC 210153Z AUTO 20005KT 10SM -RA FEW060 BKN070 OVC095 10/06
A3024 RMK AO2 RAB47 SLP189 P0000 T01000061





000
SAUS45 KABQ 210154
MTRTCS
METAR KTCS 210153Z AUTO 36009KT 10SM FEW065 OVC090 14/12 A3012 RMK
AO2 RAE12 SLP153 P0005 T01390122 TSNO





000
SAUS45 KABQ 210154
MTRCQC
METAR KCQC 210153Z AUTO 20005KT 10SM -RA FEW060 BKN070 OVC095 10/06
A3024 RMK AO2 RAB47 SLP189 P0000 T01000061





000
SAUS45 KABQ 210153
MTRABQ
METAR KABQ 210152Z 06010KT 10SM -RA SCT045 BKN080 OVC120 15/11 A3016
RMK AO2 LTG DSNT SE RAB34 SLP171 MTNS OBSC NE-SE P0001 T01500106





000
SAUS45 KABQ 210153
MTRABQ
METAR KABQ 210152Z 06010KT 10SM -RA SCT045 BKN080 OVC120 15/11 A3016
RMK AO2 LTG DSNT SE RAB34 SLP171 MTNS OBSC NE-SE P0001 T01500106





000
SAUS45 KABQ 210054
MTRCQC
METAR KCQC 210053Z AUTO 17011KT 10SM FEW055 BKN100 BKN120 11/07
A3022 RMK AO2 SLP187 T01110067





000
SAUS45 KABQ 210054
MTRTCS
METAR KTCS 210053Z AUTO 03015KT 3SM +RA BR SCT046 BKN055 OVC070
14/13 A3011 RMK AO2 WSHFT 2351 RAB12 SLP149 P0016 T01390128 TSNO





000
SAUS45 KABQ 210053
MTRABQ
METAR KABQ 210052Z 18003KT 10SM FEW065 SCT080 BKN110 BKN250 16/11
A3015 RMK AO2 SLP166 T01610106





000
SAUS45 KABQ 210038
MTRTCS
SPECI KTCS 210037Z AUTO 04014KT 4SM RA BR FEW027 BKN055 OVC070 14/13
A3010 RMK AO2 WSHFT 2351 RAB12 P0009 T01390128 TSNO





000
SAUS45 KABQ 210030
MTRTCS
SPECI KTCS 210028Z AUTO 05017KT 2SM +RA BR FEW029 OVC055 14/13 A3010
RMK AO2 WSHFT 2351 RAB12 P0005 T01390128 TSNO





000
SAUS45 KABQ 210012
MTRTCS
SPECI KTCS 210011Z AUTO 03015G22KT 10SM OVC055 17/11 A3008 RMK AO2
WSHFT 2351 T01720111 TSNO





000
SAUS45 KABQ 202354
MTRCQC
METAR KCQC 202353Z AUTO 10011KT 10SM BKN100 14/06 A3019 RMK AO2 PK
WND 12026/2255 WSHFT 2254 RAB01E23 SLP168 P0000 60000 T01440056
10200 20139 53002





000
SAUS45 KABQ 202354
MTRTCS
METAR KTCS 202353Z AUTO 06010KT 10SM BKN060 BKN070 OVC100 21/09
A3006 RMK AO2 SLP122 T02060094 10217 20189 55005 TSNO





000
SAUS45 KABQ 202352
MTRABQ
METAR KABQ 202352Z 03004KT 10SM FEW065 BKN080 BKN110 BKN250 16/11
A3015 RMK AO2 RAB14E31 TSE12 SLP167 SHRA DSNT E-SE AND NW P0000
60044 T01560106 10228 20133 51008





000
SAUS45 KABQ 202335
MTRABQ
SPECI KABQ 202335Z 00000KT 10SM FEW060 BKN080 BKN100 BKN250 16/09
A3015 RMK AO2 RAB14E31 TSE12 SHRA DSNT SE P0000 T01560094





000
SAUS45 KABQ 202324 COR
MTRCQC
SPECI KCQC 202314Z AUTO 12010KT 10SM -RA SCT050 BKN065 OVC090 14/07
A3019 RMK AO2 PK WND 12026/2255 WSHFT 2254 RAB01 P0000 T01390067





000
SAUS45 KABQ 202323 COR
MTRCQC
SPECI KCQC 202314Z AUTO 12010KT 10SM -RA SCT050 BKN065 OVC090 14/07
A3019 RMK AO2 PK WND 12026/2255 WSHFT 2254 RAB01 P0000 T01390067





000
SAUS45 KABQ 202322 COR
MTRCQC
SPECI KCQC 202314Z AUTO 12010KT 10SM -RA SCT050 BKN065 OVC090 14/07
A3019 RMK AO2 PK WND 12026/2255 WSHFT 2254 RAB01 P0000 T01390067





000
SAUS45 KABQ 202320 COR
MTRCQC
SPECI KCQC 202314Z AUTO 12010KT 10SM -RA SCT050 BKN065 OVC090 14/07
A3019 RMK AO2 PK WND 12026/2255 WSHFT 2254 RAB01 P0000 T01390067





000
SAUS45 KABQ 202319 COR
MTRCQC
SPECI KCQC 202314Z AUTO 12010KT 10SM -RA SCT050 BKN065 OVC090 14/07
A3019 RMK AO2 PK WND 12026/2255 WSHFT 2254 RAB01 P0000 T01390067





000
SAUS45 KABQ 202317 COR
MTRCQC
SPECI KCQC 202314Z AUTO 12010KT 10SM -RA SCT050 BKN065 OVC090 14/07
A3019 RMK AO2 PK WND 12026/2255 WSHFT 2254 RAB01 P0000 T01390067





000
SAUS45 KABQ 202316 COR
MTRCQC
SPECI KCQC 202314Z AUTO 12010KT 10SM -RA SCT050 BKN065 OVC090 14/07
A3019 RMK AO2 PK WND 12026/2255 WSHFT 2254 RAB01 P0000 T01390067





000
SAUS45 KABQ 202315
MTRCQC
SPECI KCQC 202314Z AUTO 12010KT 10SM -RA SCT050 BKN065 OVC090 14/07
A3019 RMK AO2 PK WND 12026/2255 WSHFT 2254 RAB01 P0000 T01390067





000
SAUS45 KABQ 202312
MTRABQ
SPECI KABQ 202312Z 00000KT 10SM VCTS FEW035 BKN075CB BKN100 16/08
A3015 RMK AO2 TSE12 TS NW MOV NW VCSH NW T01610083





000
SAUS45 KABQ 202258 COR
MTRCQC
METAR KCQC 202253Z AUTO 09014G19KT 10SM FEW050 SCT070 SCT090 18/04
A3018 RMK AO2 SLP154 T01830044





000
SAUS45 KABQ 202258 COR
MTRCQC
METAR KCQC 202253Z AUTO 09014G19KT 10SM FEW050 SCT070 SCT090 18/04
A3018 RMK AO2 SLP154 T01830044





000
SAUS45 KABQ 202256 COR
MTRCQC
METAR KCQC 202253Z AUTO 09014G19KT 10SM FEW050 SCT070 SCT090 18/04
A3018 RMK AO2 SLP154 T01830044





000
SAUS45 KABQ 202255 COR
MTRCQC
METAR KCQC 202253Z AUTO 09014G19KT 10SM FEW050 SCT070 SCT090 18/04
A3018 RMK AO2 SLP154 T01830044





000
SAUS45 KABQ 202255 COR
MTRCQC
METAR KCQC 202253Z AUTO 09014G19KT 10SM FEW050 SCT070 SCT090 18/04
A3018 RMK AO2 SLP154 T01830044





000
SAUS45 KABQ 202254
MTRTCS
METAR KTCS 202253Z AUTO 00000KT 10SM SCT100 21/08 A3006 RMK AO2
SLP119 T02110078 TSNO





000
SAUS45 KABQ 202254
MTRCQC
METAR KCQC 202253Z AUTO 09014G19KT 10SM FEW050 SCT070 SCT090 18/04
A3018 RMK AO2 SLP154 T01830044





000
SAUS45 KABQ 202254
MTRTCS
METAR KTCS 202253Z AUTO 00000KT 10SM SCT100 21/08 A3006 RMK AO2
SLP119 T02110078 TSNO





000
SAUS45 KABQ 202254
MTRCQC
METAR KCQC 202253Z AUTO 09014G19KT 10SM FEW050 SCT070 SCT090 18/04
A3018 RMK AO2 SLP154 T01830044





000
SAUS45 KABQ 202252
MTRABQ
METAR KABQ 202252Z 33004KT 10SM TS FEW050 BKN060CB BKN100 BKN250
16/09 A3015 RMK AO2 PK WND 08026/2202 RAE49 SLP165 TS NW MOV NW VCSH
NW P0044 T01560089





000
SAUS45 KABQ 202252
MTRABQ
METAR KABQ 202252Z 33004KT 10SM TS FEW050 BKN060CB BKN100 BKN250
16/09 A3015 RMK AO2 PK WND 08026/2202 RAE49 SLP165 TS NW MOV NW VCSH
NW P0044 T01560089





000
SAUS45 KABQ 202227
MTRABQ
SPECI KABQ 202227Z 06011KT 3SM +TSRA SCT035 BKN060CB OVC120 13/10
A3016 RMK AO2 PK WND 08026/2202 TS NW-OHD MOV NW MTNS OBSC NE-SE
P0042 T01330100





000
SAUS45 KABQ 202222
MTRABQ
SPECI KABQ 202207Z COR 08020G26KT 2SM +TSRA FEW030 BKN060CB BKN100
OVC250 14/09 A3016 RMK AO2 PK WND 08026/2202 PRESRR TS NW-OHD-SE MOV
NW MTNS OBSC NE-SE P0016 T01440094





000
SAUS45 KABQ 202207
MTRABQ
SPECI KABQ 202207Z 08020G26KT 2SM -TSRA FEW030 BKN060CB BKN100
OVC250 14/09 A3016 RMK AO2 PK WND 08026/2202 PRESRR TS NW-OHD-SE MOV
NW MTNS OBSC NE-SE P0016 T01440094





000
SAUS45 KABQ 202207
MTRABQ
SPECI KABQ 202207Z 08020G26KT 2SM -TSRA FEW030 BKN060CB BKN100
OVC250 14/09 A3016 RMK AO2 PK WND 08026/2202 PRESRR TS NW-OHD-SE MOV
NW MTNS OBSC NE-SE P0016 T01440094





000
SAUS45 KABQ 202157
MTRABQ
METAR KABQ 202152Z COR 08021KT 10SM -TSRA BKN060CB BKN100 BKN300
19/06 A3014 RMK AO2 LTG DSNT SE TSB26 SLP153 TS N-OHD-SE MOV W P0000
T01940056





000
SAUS45 KABQ 202157
MTRABQ
METAR KABQ 202152Z COR 08021KT 10SM -TSRA BKN060CB BKN100 BKN300
19/06 A3014 RMK AO2 LTG DSNT SE TSB26 SLP153 TS N-OHD-SE MOV W P0000
T01940056





000
SAUS45 KABQ 202155
MTRTCS
METAR KTCS 202153Z AUTO 00000KT 10SM FEW050 22/08 A3007 RMK AO2
SLP120 T02170083 TSNO





000
SAUS45 KABQ 202155
MTRTCS
METAR KTCS 202153Z AUTO 00000KT 10SM FEW050 22/08 A3007 RMK AO2
SLP120 T02170083 TSNO





000
SAUS45 KABQ 202154
MTRCQC
METAR KCQC 202153Z AUTO 10009G19KT 10SM FEW050 SCT095 19/03 A3019
RMK AO2 SLP149 T01890028





000
SAUS45 KABQ 202154
MTRCQC
METAR KCQC 202153Z AUTO 10009G19KT 10SM FEW050 SCT095 19/03 A3019
RMK AO2 SLP149 T01890028





000
SAUS45 KABQ 202152
MTRABQ
METAR KABQ 202152Z 08021KT 10SM -TSRA BKN060CB BKN100 BKN300 19/06
A3014 RMK AO2 LTG DSNT SE SLP153 TS N-OHD-SE MOV W P0000 T01940056





000
SAUS45 KABQ 202152
MTRABQ
METAR KABQ 202152Z 08021KT 10SM -TSRA BKN060CB BKN100 BKN300 19/06
A3014 RMK AO2 LTG DSNT SE SLP153 TS N-OHD-SE MOV W P0000 T01940056





000
SAUS45 KABQ 202126
MTRABQ
SPECI KABQ 202126Z 05004KT 10SM TS FEW065 SCT110CB SCT170 BKN250
23/06 A3012 RMK AO2 LTG DSNT E AND SE TS NE-SE MOV NW VCSH N-E-S-SW
T02280056





000
SAUS45 KABQ 202054
MTRCQC
METAR KCQC 202053Z AUTO 10011G19KT 10SM FEW055 SCT100 19/04 A3019
RMK AO2 SLP149 T01940044 58017





000
SAUS45 KABQ 202054
MTRTCS
METAR KTCS 202053Z AUTO 13003KT 10SM SCT050 SCT060 SCT090 21/08
A3008 RMK AO2 SLP127 T02110083 58022 TSNO





000
SAUS45 KABQ 202052
MTRABQ
METAR KABQ 202052Z 24006KT 10SM FEW065 SCT110TCU SCT170 BKN250 21/06
A3012 RMK AO2 LTG DSNT E SLP143 TCU NE-SE-S AND NW VCSH NE AND SE-S
SHRA DSNT N AND E T02110056 56024





000
SAUS45 KABQ 201954
MTRCQC
METAR KCQC 201953Z AUTO 12010KT 10SM SCT050 SCT060 BKN095 17/04
A3021 RMK AO2 SLP165 T01720044





000
SAUS45 KABQ 201954
MTRTCS
METAR KTCS 201953Z AUTO 20005KT 10SM SCT050 BKN060 BKN075 21/08
A3010 RMK AO2 SLP134 T02060083 TSNO





000
SAUS45 KABQ 201952
MTRABQ
METAR KABQ 201952Z VRB04KT 10SM FEW055 FEW085 SCT120 BKN170 BKN250
21/06 A3014 RMK AO2 LTG DSNT NE SLP152 CB DSNT S TCU DSNT N-E-SE AND
W SHRA DSNT NE-SE T02060061





000
SAUS45 KABQ 201855
MTRTCS
METAR KTCS 201853Z AUTO 04006KT 10SM FEW045 20/09 A3014 RMK AO2
SLP149 T02000094 TSNO





000
SAUS45 KABQ 201854
MTRCQC
METAR KCQC 201853Z AUTO 08012KT 10SM FEW050 FEW090 19/04 A3023 RMK
AO2 SLP168 T01890044





000
SAUS45 KABQ 201852
MTRABQ
METAR KABQ 201852Z 21004KT 10SM FEW055 SCT090 BKN170 BKN250 18/05
A3018 RMK AO2 SLP169 TCU DSNT SW AND NW ACC DSNT W T01830050





000
SAUS45 KABQ 201754
MTRTCS
METAR KTCS 201753Z AUTO 04008KT 10SM CLR 19/10 A3015 RMK AO2 SLP154
T01890100 10189 20100 58002 TSNO





000
SAUS45 KABQ 201754
MTRCQC
METAR KCQC 201753Z AUTO 12008G15KT 10SM FEW047 18/04 A3025 RMK AO2
SLP171 T01830044 10183 20056 58002





000
SAUS45 KABQ 201752
MTRABQ
METAR KABQ 201752Z 19006KT 10SM FEW060 SCT090 BKN140 BKN250 17/06
A3020 RMK AO2 SLP176 TCU DSNT W ACC DSNT E-SE T01670061 10172 20083
56001





000
SAUS45 KABQ 201654
MTRCQC
METAR KCQC 201653Z AUTO 09009KT 060V120 10SM CLR 17/06 A3026 RMK AO2
SLP177 T01670056





000
SAUS45 KABQ 201654
MTRTCS
METAR KTCS 201653Z AUTO 02007KT 10SM CLR 17/11 A3016 RMK AO2 SLP161
T01720111 TSNO





000
SAUS45 KABQ 201652
MTRABQ
METAR KABQ 201652Z 30006KT 10SM FEW060 SCT080 BKN140 BKN230 17/06
A3020 RMK AO2 SLP176 VIRGA OHD-S SHRA DSNT SE T01670056





000
SAUS45 KABQ 201555
MTRCQC
METAR KCQC 201553Z AUTO 08008KT 10SM CLR 16/05 A3025 RMK AO2 SLP176
T01560050





000
SAUS45 KABQ 201554
MTRTCS
METAR KTCS 201553Z AUTO 02006KT 10SM CLR 16/11 A3016 RMK AO2 SLP161
T01610111 TSNO





000
SAUS45 KABQ 201553
MTRABQ
METAR KABQ 201552Z 33006KT 10SM FEW060 SCT080 BKN130 BKN230 14/06
A3020 RMK AO2 SLP180 VIRGA OHD-SE-S T01390056





000
SAUS45 KABQ 201454
MTRTCS
METAR KTCS 201453Z AUTO 35006KT 10SM CLR 13/11 A3016 RMK AO2 SLP164
T01330111 53014 TSNO





000
SAUS45 KABQ 201454
MTRCQC
METAR KCQC 201453Z AUTO 36005KT 10SM CLR 13/05 A3025 RMK AO2 SLP182
T01330050 53008





000
SAUS45 KABQ 201453
MTRABQ
METAR KABQ 201452Z 36005KT 10SM SCT080 SCT230 12/06 A3021 RMK AO2
SLP182 VIRGA OHD-SW T01220056 51005





000
SAUS45 KABQ 201354
MTRTCS
METAR KTCS 201353Z AUTO 32005KT 10SM CLR 11/09 A3013 RMK AO2 SLP158
T01110094 TSNO





000
SAUS45 KABQ 201354
MTRCQC
METAR KCQC 201353Z AUTO 35005KT 10SM CLR 08/04 A3024 RMK AO2 SLP187
T00830044





000
SAUS45 KABQ 201353
MTRABQ
METAR KABQ 201352Z 00000KT 10SM SCT075 SCT240 09/06 A3020 RMK AO2
SLP186 T00940056





000
SAUS45 KABQ 201254
MTRCQC
METAR KCQC 201253Z AUTO 29004KT 10SM CLR 06/04 A3024 RMK AO2 SLP185
T00610039





000
SAUS45 KABQ 201254
MTRTCS
METAR KTCS 201253Z AUTO 35004KT 10SM CLR 11/10 A3011 RMK AO2 SLP150
T01110100 TSNO





000
SAUS45 KABQ 201253
MTRABQ
METAR KABQ 201252Z 00000KT 10SM SCT075 SCT250 09/06 A3020 RMK AO2
SLP187 T00940056





000
SAUS45 KABQ 201154
MTRTCS
METAR KTCS 201153Z AUTO 32007KT 10SM CLR 12/10 A3011 RMK AO2 SLP144
60003 70010 T01170100 10128 20117 57010 TSNO





000
SAUS45 KABQ 201154
MTRCQC
METAR KCQC 201153Z AUTO 27005KT 10SM CLR 06/03 A3022 RMK AO2 SLP179
T00610033 10094 20050 55003





000
SAUS45 KABQ 201153
MTRABQ
METAR KABQ 201152Z 00000KT 10SM FEW060 09/06 A3019 RMK AO2 SLP181
T00940056 10128 20089 53002





000
SAUS45 KABQ 201054
MTRCQC
METAR KCQC 201053Z AUTO 25004KT 10SM CLR 07/04 A3022 RMK AO2 SLP169
T00670039





000
SAUS45 KABQ 201054
MTRTCS
METAR KTCS 201053Z AUTO 32005KT 10SM CLR 12/11 A3013 RMK AO2 SLP146
T01220106 TSNO





000
SAUS45 KABQ 201054
MTRTCS
METAR KTCS 201053Z AUTO 32005KT 10SM CLR 12/11 A3013 RMK AO2 SLP146
T01220106 TSNO





000
SAUS45 KABQ 201054
MTRCQC
METAR KCQC 201053Z AUTO 25004KT 10SM CLR 07/04 A3022 RMK AO2 SLP169
T00670039





000
SAUS45 KABQ 201053
MTRABQ
METAR KABQ 201052Z 00000KT 10SM FEW060 10/06 A3018 RMK AO2 SLP174
T01000061





000
SAUS45 KABQ 201053
MTRABQ
METAR KABQ 201052Z 00000KT 10SM FEW060 10/06 A3018 RMK AO2 SLP174
T01000061





000
SAUS45 KABQ 200954
MTRTCS
METAR KTCS 200953Z AUTO 03003KT 10SM FEW065 12/11 A3014 RMK AO2
SLP152 T01220106 TSNO





000
SAUS45 KABQ 200954
MTRTCS
METAR KTCS 200953Z AUTO 03003KT 10SM FEW065 12/11 A3014 RMK AO2
SLP152 T01220106 TSNO





000
SAUS45 KABQ 200954
MTRCQC
METAR KCQC 200953Z AUTO 25003KT 10SM CLR 08/06 A3022 RMK AO2 SLP164
T00830056





000
SAUS45 KABQ 200954
MTRCQC
METAR KCQC 200953Z AUTO 25003KT 10SM CLR 08/06 A3022 RMK AO2 SLP164
T00830056





000
SAUS45 KABQ 200953
MTRABQ
METAR KABQ 200952Z 25005KT 10SM SCT100 SCT240 10/06 A3018 RMK AO2
SLP172 T01000056





000
SAUS45 KABQ 200953
MTRABQ
METAR KABQ 200952Z 25005KT 10SM SCT100 SCT240 10/06 A3018 RMK AO2
SLP172 T01000056





000
SAUS45 KABQ 200854
MTRTCS
METAR KTCS 200853Z AUTO 36003KT 10SM SCT070 BKN095 OVC110 12/11
A3015 RMK AO2 RAE53 SLP158 P0001 60003 T01220111 58001 TSNO





000
SAUS45 KABQ 200854
MTRCQC
METAR KCQC 200853Z AUTO 00000KT 10SM CLR 08/04 A3023 RMK AO2 SLP166
T00830044 52005





000
SAUS45 KABQ 200852
MTRABQ
METAR KABQ 200852Z 18007KT 10SM SCT095 SCT240 11/05 A3018 RMK AO2
SLP172 T01110050 53006





000
SAUS45 KABQ 200754
MTRTCS
METAR KTCS 200753Z AUTO 31008KT 10SM -RA OVC070 13/11 A3015 RMK AO2
SLP159 P0002 T01280106 TSNO





000
SAUS45 KABQ 200754
MTRCQC
METAR KCQC 200753Z AUTO 01005KT 10SM CLR 07/02 A3022 RMK AO2 SLP165
T00670022





000
SAUS45 KABQ 200754
MTRTCS
METAR KTCS 200753Z AUTO 31008KT 10SM -RA OVC070 13/11 A3015 RMK AO2
SLP159 P0002 T01280106 TSNO





000
SAUS45 KABQ 200754
MTRCQC
METAR KCQC 200753Z AUTO 01005KT 10SM CLR 07/02 A3022 RMK AO2 SLP165
T00670022





000
SAUS45 KABQ 200752
MTRABQ
METAR KABQ 200752Z 00000KT 10SM FEW100 09/04 A3017 RMK AO2 SLP168
T00940039





000
SAUS45 KABQ 200752
MTRABQ
METAR KABQ 200752Z 00000KT 10SM FEW100 09/04 A3017 RMK AO2 SLP168
T00940039





000
SAUS45 KABQ 200654
MTRCQC
METAR KCQC 200653Z AUTO 29003KT 10SM CLR 07/02 A3023 RMK AO2 SLP169
T00720022 402000067





000
SAUS45 KABQ 200654
MTRTCS
METAR KTCS 200653Z AUTO 29003KT 10SM -RA BKN070 OVC085 12/11 A3016
RMK AO2 RAB10 SLP163 P0000 T01220111 401830117 TSNO





000
SAUS45 KABQ 200653
MTRABQ
METAR KABQ 200652Z 00000KT 10SM FEW100 11/04 A3017 RMK AO2 SLP164
T01060044 401940100





000
SAUS45 KABQ 200554
MTRTCS
METAR KTCS 200553Z AUTO 31004KT 10SM SCT060 BKN070 OVC100 13/11
A3015 RMK AO2 RAE50 SLP161 P0001 60005 T01280106 10178 20122 50020
TSNO





000
SAUS45 KABQ 200554
MTRCQC
METAR KCQC 200553Z AUTO 20007KT 10SM CLR 09/02 A3022 RMK AO2 SLP162
T00890022 10144 20089 53006





000
SAUS45 KABQ 200553
MTRABQ
METAR KABQ 200552Z 21004KT 10SM FEW100 SCT140 13/05 A3016 RMK AO2
SLP160 T01280050 10161 20128 51007





000
SAUS45 KABQ 200454
MTRCQC
METAR KCQC 200453Z AUTO 10003KT 10SM CLR 10/03 A3021 RMK AO2 SLP159
T01000028





000
SAUS45 KABQ 200454
MTRTCS
METAR KTCS 200453Z AUTO 26005KT 7SM -RA SCT055 OVC070 13/11 A3017
RMK AO2 SLP170 P0003 T01280111 TSNO





000
SAUS45 KABQ 200453
MTRABQ
METAR KABQ 200452Z 02003KT 10SM FEW220 13/06 A3015 RMK AO2 SLP156
T01330056





000
SAUS45 KABQ 200354
MTRTCS
METAR KTCS 200353Z AUTO 23015KT 8SM -RA BKN070 OVC085 13/11 A3014
RMK AO2 RAB26 SLP158 P0001 T01330106 TSNO





000
SAUS45 KABQ 200354
MTRCQC
METAR KCQC 200353Z AUTO 03006KT 10SM CLR 11/03 A3019 RMK AO2 SLP161
T01060028





000
SAUS45 KABQ 200352
MTRABQ
METAR KABQ 200352Z 29004KT 10SM FEW070 SCT200 14/06 A3015 RMK AO2
SLP159 T01390056





000
SAUS45 KABQ 200254
MTRCQC
METAR KCQC 200253Z AUTO 04008KT 10SM CLR 11/04 A3019 RMK AO2 SLP174
T01060039 58005





000
SAUS45 KABQ 200254
MTRTCS
METAR KTCS 200253Z AUTO 32004KT 10SM FEW120 14/09 A3008 RMK AO2
SLP137 T01390094 50008 TSNO





000
SAUS45 KABQ 200253
MTRABQ
METAR KABQ 200252Z 08011KT 10SM SCT070 SCT110 16/04 A3014 RMK AO2
SLP155 T01560044 55005





    US Dept of Commerce
    National Oceanic and Atmospheric Administration
    National Weather Service
    1325 East West Highway
    Silver Spring, MD 20910
    Page Author: NWS Internet Services Team
Disclaimer
Information Quality
Credits
Glossary
Privacy Policy
Freedom of Information Act (FOIA)
About Us
Career Opportunities